Terminal Aerodrome Forecast
Issued by NWS

Home | Current Version | Previous Version | Text Only | Print | Product List | Glossary On
Versions: 1 2 3 4 5 6 7 8 9 10 11 12 13
000
FTUS43 KSGF 232038 AAA
TAFJLN
TAF AMD
KJLN 232038Z 2321/2418 20010G15KT P6SM FEW050
     FM240000 18006KT P6SM FEW250
     FM241500 22010KT P6SM FEW050=

USA.gov is the U.S. government's official web portal to all federal, state and local government web resources and services.